createdAt,value
2019-03-03T00:02:56.053Z,12.37
2019-03-03T00:08:01.417Z,12.18
2019-03-03T00:13:06.812Z,12.05
2019-03-03T00:18:12.584Z,11.95
2019-03-03T00:23:18.619Z,11.86
2019-03-03T00:28:24.454Z,11.78
2019-03-03T00:33:30.149Z,11.74
2019-03-03T00:38:53.170Z,11.72
2019-03-03T00:44:11.567Z,11.72
2019-03-03T00:49:35.945Z,11.74
2019-03-03T00:55:03.146Z,11.77
2019-03-03T01:00:25.881Z,11.79
2019-03-03T01:05:56.228Z,11.82
2019-03-03T01:11:20.520Z,11.84
2019-03-03T01:16:59.790Z,11.86
2019-03-03T01:22:19.421Z,11.86
2019-03-03T01:27:25.877Z,11.85
2019-03-03T01:32:31.376Z,11.85
2019-03-03T01:37:36.787Z,11.83
2019-03-03T01:42:42.400Z,11.81
2019-03-03T01:47:47.864Z,11.85
2019-03-03T01:52:53.374Z,11.89
2019-03-03T01:57:59.154Z,11.96
2019-03-03T02:03:04.706Z,12.02
2019-03-03T02:08:10.159Z,12.08
2019-03-03T02:13:15.899Z,12.14
2019-03-03T02:18:21.494Z,12.15
2019-03-03T02:23:27.218Z,12.14
2019-03-03T02:28:32.602Z,12.07
2019-03-03T02:33:38.108Z,11.95
2019-03-03T02:38:43.703Z,11.85
2019-03-03T02:43:49.272Z,11.80
2019-03-03T02:48:54.665Z,11.81
2019-03-03T02:54:00.117Z,11.85
2019-03-03T02:59:05.577Z,11.92
2019-03-03T03:04:11.090Z,11.98
2019-03-03T03:09:19.102Z,12.04
2019-03-03T03:14:46.625Z,12.05
2019-03-03T03:20:11.171Z,12.09
2019-03-03T03:25:33.821Z,12.13
2019-03-03T03:30:49.325Z,12.18
2019-03-03T03:36:19.523Z,12.19
2019-03-03T03:41:46.609Z,12.19
2019-03-03T03:46:57.193Z,12.21
2019-03-03T03:52:14.013Z,12.20
2019-03-03T03:57:44.466Z,12.17
2019-03-03T04:03:09.595Z,12.16
2019-03-03T04:08:23.771Z,12.19
2019-03-03T04:13:45.453Z,12.22
2019-03-03T04:19:15.690Z,12.27
2019-03-03T04:24:38.443Z,12.34
2019-03-03T04:29:49.794Z,12.40
2019-03-03T04:35:17.956Z,12.46
2019-03-03T04:40:29.468Z,12.51
2019-03-03T04:45:48.927Z,12.55
2019-03-03T04:51:11.612Z,12.65
2019-03-03T04:56:38.889Z,12.71
2019-03-03T05:01:58.995Z,12.79
2019-03-03T05:07:18.439Z,12.85
2019-03-03T05:12:56.435Z,12.89
2019-03-03T05:18:36.011Z,12.89
2019-03-03T05:23:41.388Z,12.82
2019-03-03T05:28:46.913Z,12.79
2019-03-03T05:33:52.312Z,12.75
2019-03-03T05:38:57.817Z,12.73
2019-03-03T05:44:03.201Z,12.75
2019-03-03T05:49:08.806Z,12.79
2019-03-03T05:54:14.282Z,12.78
2019-03-03T05:59:19.642Z,12.76
2019-03-03T06:04:25.078Z,12.80
2019-03-03T06:09:30.502Z,12.80
2019-03-03T06:14:35.968Z,12.85
2019-03-03T06:19:41.549Z,12.87
2019-03-03T06:24:46.978Z,12.90
2019-03-03T06:29:52.433Z,12.99
2019-03-03T06:34:57.978Z,13.05
2019-03-03T06:40:03.471Z,13.15
2019-03-03T06:45:10.239Z,13.19
2019-03-03T06:50:15.735Z,13.25
2019-03-03T06:55:21.150Z,13.30
2019-03-03T07:00:26.579Z,13.36
2019-03-03T07:05:32.097Z,13.38
2019-03-03T07:10:37.458Z,13.44
2019-03-03T07:15:43.025Z,13.52
2019-03-03T07:20:48.426Z,13.58
2019-03-03T07:25:54.006Z,13.65
2019-03-03T07:30:59.500Z,13.75
2019-03-03T07:36:04.962Z,13.83
2019-03-03T07:41:10.363Z,13.90
2019-03-03T07:46:15.824Z,13.96
2019-03-03T07:51:21.223Z,13.99
2019-03-03T07:56:29.462Z,14.04
2019-03-03T08:01:34.931Z,14.08
2019-03-03T08:06:40.481Z,14.18
2019-03-03T08:11:45.860Z,14.26
2019-03-03T08:16:51.317Z,14.31
2019-03-03T08:21:56.725Z,14.27
2019-03-03T08:27:02.336Z,14.31
2019-03-03T08:32:07.730Z,14.30
2019-03-03T08:37:13.273Z,14.28
2019-03-03T08:42:34.623Z,14.29
2019-03-03T08:47:53.137Z,14.30
2019-03-03T08:53:06.129Z,14.29
2019-03-03T08:58:16.996Z,14.32
2019-03-03T09:03:41.559Z,14.38
2019-03-03T09:08:59.124Z,14.40
2019-03-03T09:14:27.682Z,14.44
2019-03-03T09:19:57.884Z,14.48
2019-03-03T09:25:09.834Z,14.54
2019-03-03T09:30:32.528Z,14.67
2019-03-03T09:35:52.666Z,14.71
2019-03-03T09:41:25.827Z,14.77
2019-03-03T09:46:42.964Z,14.85
2019-03-03T09:52:25.462Z,14.89
2019-03-03T09:57:44.548Z,14.88
2019-03-03T10:03:20.826Z,14.87
2019-03-03T10:08:32.484Z,14.87
2019-03-03T10:13:59.812Z,14.85
2019-03-03T10:19:12.296Z,14.83
2019-03-03T10:24:32.905Z,14.83
2019-03-03T10:30:12.108Z,14.86
2019-03-03T10:35:27.143Z,14.91
2019-03-03T10:40:57.474Z,14.97
2019-03-03T10:46:13.595Z,14.98
2019-03-03T10:51:33.399Z,14.99
2019-03-03T10:57:01.149Z,15.01
2019-03-03T11:02:28.292Z,15.07
2019-03-03T11:08:07.706Z,15.06
2019-03-03T11:13:30.805Z,14.99
2019-03-03T11:19:01.540Z,14.95
2019-03-03T11:24:40.859Z,14.99
2019-03-03T11:30:00.233Z,15.09
2019-03-03T11:35:23.538Z,15.22
2019-03-03T11:40:46.395Z,15.40
2019-03-03T11:46:19.677Z,15.43
2019-03-03T11:51:48.436Z,15.45
2019-03-03T11:56:59.597Z,15.60
2019-03-03T12:02:35.998Z,15.82
2019-03-03T12:08:00.299Z,15.91
2019-03-03T12:13:17.700Z,15.94
2019-03-03T12:18:31.059Z,16.03
2019-03-03T12:24:04.444Z,16.40
2019-03-03T12:29:28.815Z,16.82
2019-03-03T12:34:41.177Z,17.05
2019-03-03T12:40:11.343Z,17.16
2019-03-03T12:45:34.066Z,17.03
2019-03-03T12:50:55.706Z,16.81
2019-03-03T12:56:26.111Z,16.58
2019-03-03T13:02:05.409Z,16.43
2019-03-03T13:07:28.367Z,16.33
2019-03-03T13:12:50.171Z,16.34
2019-03-03T13:18:26.755Z,16.39
2019-03-03T13:23:57.099Z,16.44
2019-03-03T13:29:07.711Z,16.38
2019-03-03T13:34:20.571Z,16.34
2019-03-03T13:39:56.976Z,16.33
2019-03-03T13:45:02.352Z,16.24
2019-03-03T13:50:10.900Z,16.13
2019-03-03T13:55:16.604Z,16.04
2019-03-03T14:00:22.642Z,15.96
2019-03-03T14:05:28.118Z,15.90
2019-03-03T14:10:33.672Z,15.83
2019-03-03T14:15:39.131Z,15.75
2019-03-03T14:20:44.511Z,15.71
2019-03-03T14:25:49.935Z,15.73
2019-03-03T14:30:55.400Z,15.79
2019-03-03T14:36:00.859Z,15.79
2019-03-03T14:41:06.341Z,15.80
2019-03-03T14:46:11.884Z,15.84
2019-03-03T14:51:17.374Z,15.88
2019-03-03T14:56:22.783Z,15.87
2019-03-03T15:01:28.249Z,15.83
2019-03-03T15:06:33.709Z,15.80
2019-03-03T15:11:39.411Z,15.77
2019-03-03T15:16:44.827Z,15.71
2019-03-03T15:21:50.224Z,15.63
2019-03-03T15:26:55.801Z,15.57
2019-03-03T15:32:01.314Z,15.57
2019-03-03T15:37:11.327Z,15.62
2019-03-03T15:42:16.967Z,15.65
2019-03-03T15:47:22.483Z,15.65
2019-03-03T15:52:27.886Z,15.65
2019-03-03T15:57:33.377Z,15.66
2019-03-03T16:02:38.747Z,15.63
2019-03-03T16:07:44.166Z,15.58
2019-03-03T16:12:49.570Z,15.56
2019-03-03T16:17:55.053Z,15.50
2019-03-03T16:23:00.622Z,15.46
2019-03-03T16:28:06.059Z,15.46
2019-03-03T16:33:20.260Z,15.43
2019-03-03T16:38:18.687Z,15.38
2019-03-03T16:43:24.189Z,15.35
2019-03-03T16:48:29.698Z,15.29
2019-03-03T16:53:35.249Z,15.22
2019-03-03T16:58:40.734Z,15.18
2019-03-03T17:03:46.219Z,15.16
2019-03-03T17:08:51.656Z,15.12
2019-03-03T17:13:57.072Z,15.16
2019-03-03T17:19:02.527Z,15.14
2019-03-03T17:24:08.040Z,15.14
2019-03-03T17:29:13.550Z,15.14
2019-03-03T17:34:19.027Z,15.18
2019-03-03T17:39:24.453Z,15.14
2019-03-03T17:44:29.850Z,15.13
2019-03-03T17:49:35.420Z,15.10
2019-03-03T17:54:40.948Z,15.07
2019-03-03T17:59:46.356Z,15.04
2019-03-03T18:04:51.770Z,15.02
2019-03-03T18:09:57.418Z,14.98
2019-03-03T18:15:02.968Z,14.95
2019-03-03T18:20:09.644Z,14.92
2019-03-03T18:25:15.501Z,14.95
2019-03-03T18:30:22.529Z,15.00
2019-03-03T18:35:28.293Z,15.02
2019-03-03T18:40:33.844Z,15.04
2019-03-03T18:45:39.244Z,15.06
2019-03-03T18:50:44.666Z,15.09
2019-03-03T18:55:50.019Z,15.09
2019-03-03T19:00:55.403Z,15.09
2019-03-03T19:06:00.772Z,15.09
2019-03-03T19:11:06.359Z,15.09
2019-03-03T19:16:11.905Z,15.11
2019-03-03T19:21:17.279Z,15.13
2019-03-03T19:26:22.749Z,15.16
2019-03-03T19:31:28.255Z,15.15
2019-03-03T19:36:33.743Z,15.18
2019-03-03T19:41:39.220Z,15.21
2019-03-03T19:46:44.648Z,15.22
2019-03-03T19:51:50.016Z,15.23
2019-03-03T19:56:57.230Z,15.25
2019-03-03T20:02:02.671Z,15.23
2019-03-03T20:07:08.088Z,15.23
2019-03-03T20:12:13.506Z,15.22
2019-03-03T20:17:18.954Z,15.21
2019-03-03T20:22:24.423Z,15.22
2019-03-03T20:27:29.970Z,15.21
2019-03-03T20:32:35.423Z,15.18
2019-03-03T20:37:40.878Z,15.14
2019-03-03T20:42:46.281Z,15.13
2019-03-03T20:47:51.691Z,15.12
2019-03-03T20:52:57.147Z,15.09
2019-03-03T20:58:02.669Z,15.06
2019-03-03T21:03:08.068Z,15.05
2019-03-03T21:08:13.540Z,15.04
2019-03-03T21:13:18.904Z,15.05
2019-03-03T21:18:24.391Z,15.06
2019-03-03T21:23:29.802Z,15.07
2019-03-03T21:28:35.206Z,15.08
2019-03-03T21:33:40.618Z,15.10
2019-03-03T21:38:46.109Z,15.10
2019-03-03T21:43:51.514Z,15.11
2019-03-03T21:48:56.994Z,15.10
2019-03-03T21:54:02.443Z,15.15
2019-03-03T21:59:07.841Z,15.19
2019-03-03T22:04:13.270Z,15.20
2019-03-03T22:09:18.704Z,15.24
2019-03-03T22:14:24.080Z,15.24
2019-03-03T22:19:29.432Z,15.27
2019-03-03T22:24:34.832Z,15.32
2019-03-03T22:29:40.225Z,15.37
2019-03-03T22:34:45.667Z,15.39
2019-03-03T22:39:51.116Z,15.39
2019-03-03T22:44:56.568Z,15.39
2019-03-03T22:50:01.946Z,15.39
2019-03-03T22:55:08.041Z,15.37
2019-03-03T23:00:43.331Z,15.36
2019-03-03T23:06:35.903Z,15.30
2019-03-03T23:12:24.979Z,15.28
2019-03-03T23:17:56.249Z,15.29
2019-03-03T23:24:18.683Z,15.32
2019-03-03T23:29:24.051Z,15.30
2019-03-03T23:34:29.496Z,15.27
2019-03-03T23:39:34.913Z,15.18
2019-03-03T23:44:40.344Z,15.18
2019-03-03T23:49:45.827Z,15.20
2019-03-03T23:54:51.182Z,15.24
2019-03-03T23:59:56.566Z,15.25
